createdAt,value
2023-03-04T00:01:21.921Z,101642.13
2023-03-04T00:04:25.949Z,101657.13
2023-03-04T00:07:28.515Z,101652.69
2023-03-04T00:10:31.130Z,101646.63
2023-03-04T00:13:33.790Z,101635.97
2023-03-04T00:16:36.439Z,101640.41
2023-03-04T00:19:40.447Z,101636.00
2023-03-04T00:22:43.068Z,101644.94
2023-03-04T00:25:45.648Z,101641.34
2023-03-04T00:28:48.267Z,101637.72
2023-03-04T00:31:50.866Z,101633.53
2023-03-04T00:34:54.856Z,101636.06
2023-03-04T00:37:57.505Z,101630.78
2023-03-04T00:41:00.105Z,101633.41
2023-03-04T00:44:02.712Z,101628.06
2023-03-04T00:47:05.457Z,101628.09
2023-03-04T00:50:11.204Z,101616.69
2023-03-04T00:53:13.851Z,101623.66
2023-03-04T00:56:16.419Z,101615.75
2023-03-04T00:59:19.006Z,101616.69
2023-03-04T01:02:21.703Z,101616.69
2023-03-04T01:05:25.689Z,101604.22
2023-03-04T01:08:28.346Z,101610.44
2023-03-04T01:11:30.959Z,101594.72
2023-03-04T01:14:33.662Z,101599.84
2023-03-04T01:17:36.495Z,101590.16
2023-03-04T01:20:40.468Z,101589.28
2023-03-04T01:23:43.078Z,101594.50
2023-03-04T01:26:45.727Z,101586.75
2023-03-04T01:29:48.341Z,101584.94
2023-03-04T01:32:50.950Z,101573.44
2023-03-04T01:35:54.905Z,101579.53
2023-03-04T01:38:57.609Z,101574.34
2023-03-04T01:42:00.328Z,101573.38
2023-03-04T01:45:03.891Z,101555.88
2023-03-04T01:48:06.662Z,101562.69
2023-03-04T01:51:15.182Z,101560.19
2023-03-04T01:54:18.049Z,101548.88
2023-03-04T01:57:23.064Z,101563.72
2023-03-04T02:00:30.440Z,101551.47
2023-03-04T02:03:33.108Z,101542.69
2023-03-04T02:06:38.152Z,101543.59
2023-03-04T02:09:40.789Z,101544.53
2023-03-04T02:12:43.504Z,101533.09
2023-03-04T02:15:47.200Z,101536.41
2023-03-04T02:18:49.976Z,101520.66
2023-03-04T02:21:53.956Z,101525.19
2023-03-04T02:25:01.482Z,101527.91
2023-03-04T02:28:05.706Z,101522.56
2023-03-04T02:31:12.057Z,101521.53
2023-03-04T02:34:17.076Z,101518.00
2023-03-04T02:37:21.609Z,101508.44
2023-03-04T02:40:28.089Z,101507.66
2023-03-04T02:43:32.198Z,101501.28
2023-03-04T02:46:34.909Z,101498.09
2023-03-04T02:49:39.503Z,101492.66
2023-03-04T02:52:42.081Z,101495.19
2023-03-04T02:55:44.768Z,101487.28
2023-03-04T02:58:48.721Z,101488.13
2023-03-04T03:01:52.020Z,101489.75
2023-03-04T03:04:54.680Z,101487.28
2023-03-04T03:07:57.415Z,101493.50
2023-03-04T03:10:59.989Z,101483.72
2023-03-04T03:14:04.354Z,101479.38
2023-03-04T03:17:06.947Z,101481.09
2023-03-04T03:20:10.782Z,101473.22
2023-03-04T03:23:13.738Z,101472.31
2023-03-04T03:26:16.932Z,101478.44
2023-03-04T03:29:20.912Z,101465.22
2023-03-04T03:32:23.606Z,101465.44
2023-03-04T03:35:26.337Z,101471.38
2023-03-04T03:38:29.147Z,101467.88
2023-03-04T03:41:31.702Z,101475.13
2023-03-04T03:44:35.758Z,101466.03
2023-03-04T03:47:38.354Z,101461.78
2023-03-04T03:50:40.979Z,101453.75
2023-03-04T03:53:43.554Z,101459.03
2023-03-04T03:56:46.186Z,101453.66
2023-03-04T03:59:50.114Z,101452.94
2023-03-04T04:02:53.655Z,101447.50
2023-03-04T04:05:56.314Z,101449.09
2023-03-04T04:08:58.918Z,101448.56
2023-03-04T04:12:01.527Z,101454.66
2023-03-04T04:15:06.524Z,101443.34
2023-03-04T04:18:09.184Z,101445.88
2023-03-04T04:21:11.760Z,101446.09
2023-03-04T04:24:14.369Z,101447.09
2023-03-04T04:27:16.987Z,101440.00
2023-03-04T04:30:21.128Z,101445.94
2023-03-04T04:33:23.825Z,101438.09
2023-03-04T04:36:26.412Z,101442.56
2023-03-04T04:39:28.982Z,101439.00
2023-03-04T04:42:31.595Z,101438.91
2023-03-04T04:45:35.817Z,101426.72
2023-03-04T04:48:38.435Z,101431.25
2023-03-04T04:51:41.302Z,101432.78
2023-03-04T04:54:43.910Z,101428.38
2023-03-04T04:57:46.489Z,101425.78
2023-03-04T05:00:50.512Z,101426.66
2023-03-04T05:03:55.183Z,101426.59
2023-03-04T05:06:57.772Z,101429.31
2023-03-04T05:10:00.359Z,101423.91
2023-03-04T05:13:02.944Z,101423.78
2023-03-04T05:16:08.286Z,101415.97
2023-03-04T05:19:11.245Z,101423.91
2023-03-04T05:22:13.868Z,101421.16
2023-03-04T05:25:16.546Z,101414.00
2023-03-04T05:28:19.498Z,101417.41
2023-03-04T05:31:23.512Z,101415.78
2023-03-04T05:34:26.090Z,101415.75
2023-03-04T05:37:28.661Z,101407.91
2023-03-04T05:40:31.288Z,101425.53
2023-03-04T05:43:35.810Z,101416.47
2023-03-04T05:46:39.860Z,101418.16
2023-03-04T05:49:43.023Z,101422.53
2023-03-04T05:52:45.613Z,101420.81
2023-03-04T05:55:48.538Z,101425.84
2023-03-04T05:58:51.103Z,101430.59
2023-03-04T06:01:55.068Z,101429.72
2023-03-04T06:04:57.756Z,101430.00
2023-03-04T06:08:00.374Z,101422.28
2023-03-04T06:11:04.893Z,101421.75
2023-03-04T06:14:07.797Z,101425.09
2023-03-04T06:17:11.807Z,101427.91
2023-03-04T06:20:14.429Z,101429.00
2023-03-04T06:23:17.353Z,101424.31
2023-03-04T06:26:19.949Z,101434.81
2023-03-04T06:29:23.318Z,101445.56
2023-03-04T06:32:27.320Z,101439.91
2023-03-04T06:35:29.944Z,101437.41
2023-03-04T06:38:32.704Z,101431.47
2023-03-04T06:41:36.308Z,101454.56
2023-03-04T06:44:39.134Z,101452.22
2023-03-04T06:47:44.543Z,101457.50
2023-03-04T06:50:47.126Z,101474.31
2023-03-04T06:53:49.719Z,101470.81
2023-03-04T06:56:52.299Z,101459.97
2023-03-04T06:59:54.908Z,101469.59
2023-03-04T07:02:59.168Z,101465.31
2023-03-04T07:06:01.753Z,101468.78
2023-03-04T07:09:04.541Z,101479.13
2023-03-04T07:12:07.326Z,101471.34
2023-03-04T07:15:11.051Z,101473.31
2023-03-04T07:18:14.993Z,101482.03
2023-03-04T07:21:19.067Z,101475.09
2023-03-04T07:24:21.799Z,101474.09
2023-03-04T07:27:24.426Z,101474.91
2023-03-04T07:30:27.146Z,101478.25
2023-03-04T07:33:31.096Z,101465.03
2023-03-04T07:36:35.212Z,101481.13
2023-03-04T07:39:37.827Z,101473.34
2023-03-04T07:42:40.430Z,101470.56
2023-03-04T07:45:43.028Z,101479.47
2023-03-04T07:48:46.963Z,101485.50
2023-03-04T07:51:49.551Z,101482.84
2023-03-04T07:54:52.170Z,101491.66
2023-03-04T07:57:54.746Z,101494.94
2023-03-04T08:00:57.478Z,101479.47
2023-03-04T08:04:01.853Z,101491.66
2023-03-04T08:07:04.465Z,101491.09
2023-03-04T08:10:08.206Z,101488.00
2023-03-04T08:13:11.140Z,101492.38
2023-03-04T08:16:15.407Z,101493.16
2023-03-04T08:19:19.584Z,101505.66
2023-03-04T08:22:22.364Z,101505.56
2023-03-04T08:25:24.985Z,101515.34
2023-03-04T08:28:27.584Z,101505.88
2023-03-04T08:31:30.434Z,101511.00
2023-03-04T08:34:34.435Z,101518.81
2023-03-04T08:37:37.130Z,101517.22
2023-03-04T08:40:39.731Z,101516.13
2023-03-04T08:43:42.717Z,101517.22
2023-03-04T08:46:45.341Z,101521.72
2023-03-04T08:49:49.282Z,101514.66
2023-03-04T08:52:51.876Z,101518.97
2023-03-04T08:55:54.492Z,101525.09
2023-03-04T08:58:57.162Z,101514.72
2023-03-04T09:01:59.765Z,101504.47
2023-03-04T09:05:03.825Z,101516.56
2023-03-04T09:08:06.775Z,101514.09
2023-03-04T09:11:09.840Z,101518.25
2023-03-04T09:14:12.433Z,101511.97
2023-03-04T09:17:15.018Z,101517.16
2023-03-04T09:20:19.693Z,101524.59
2023-03-04T09:23:22.444Z,101516.50
2023-03-04T09:26:27.126Z,101514.56
2023-03-04T09:29:29.716Z,101518.97
2023-03-04T09:32:32.317Z,101521.63
2023-03-04T09:35:36.691Z,101530.56
2023-03-04T09:38:40.098Z,101519.72
2023-03-04T09:41:45.387Z,101521.72
2023-03-04T09:44:48.619Z,101513.66
2023-03-04T09:47:54.017Z,101521.53
2023-03-04T09:51:12.045Z,101515.47
2023-03-04T09:54:21.849Z,101517.94
2023-03-04T09:57:30.902Z,101512.66
2023-03-04T10:00:39.571Z,101521.41
2023-03-04T10:03:48.245Z,101515.47
2023-03-04T10:06:54.561Z,101508.19
2023-03-04T10:10:03.406Z,101509.22
2023-03-04T10:13:13.616Z,101512.38
2023-03-04T10:16:21.319Z,101517.41
2023-03-04T10:19:34.627Z,101520.03
2023-03-04T10:22:43.124Z,101498.50
2023-03-04T10:25:46.853Z,101503.66
2023-03-04T10:28:50.248Z,101512.34
2023-03-04T10:31:56.023Z,101522.59
2023-03-04T10:34:58.789Z,101508.44
2023-03-04T10:38:05.417Z,101506.72
2023-03-04T10:41:13.979Z,101513.81
2023-03-04T10:44:19.279Z,101523.66
2023-03-04T10:47:25.141Z,101532.44
2023-03-04T10:50:29.359Z,101528.16
2023-03-04T10:53:38.721Z,101526.59
2023-03-04T10:56:45.616Z,101539.72
2023-03-04T10:59:53.304Z,101524.59
2023-03-04T11:03:25.579Z,101522.44
2023-03-04T11:06:31.384Z,101512.75
2023-03-04T11:09:35.366Z,101517.13
2023-03-04T11:12:38.168Z,101523.59
2023-03-04T11:15:52.492Z,101516.38
2023-03-04T11:18:58.987Z,101519.13
2023-03-04T11:22:02.603Z,101509.38
2023-03-04T11:25:08.967Z,101508.34
2023-03-04T11:28:16.411Z,101504.56
2023-03-04T11:31:22.561Z,101503.31
2023-03-04T11:34:35.714Z,101504.13
2023-03-04T11:37:43.885Z,101503.13
2023-03-04T11:40:52.632Z,101502.88
2023-03-04T11:43:55.305Z,101496.75
2023-03-04T11:47:06.463Z,101500.81
2023-03-04T11:50:17.524Z,101490.50
2023-03-04T11:53:34.413Z,101488.31
2023-03-04T11:56:44.351Z,101485.50
2023-03-04T11:59:58.917Z,101491.16
2023-03-04T12:03:22.791Z,101482.25
2023-03-04T12:06:36.818Z,101482.56
2023-03-04T12:09:50.415Z,101482.72
2023-03-04T12:13:15.222Z,101482.25
2023-03-04T12:16:31.440Z,101476.69
2023-03-04T12:19:47.780Z,101467.59
2023-03-04T12:22:55.590Z,101468.44
2023-03-04T12:26:04.721Z,101479.00
2023-03-04T12:29:16.808Z,101470.94
2023-03-04T12:32:27.759Z,101463.53
2023-03-04T12:35:39.473Z,101451.47
2023-03-04T12:38:56.693Z,101439.63
2023-03-04T12:42:08.511Z,101451.31
2023-03-04T12:45:20.630Z,101444.00
2023-03-04T12:48:31.446Z,101438.63
2023-03-04T12:51:41.982Z,101438.97
2023-03-04T12:54:47.565Z,101442.47
2023-03-04T12:57:51.241Z,101444.63
2023-03-04T13:01:04.396Z,101437.00
2023-03-04T13:04:15.396Z,101435.22
2023-03-04T13:07:28.449Z,101441.53
2023-03-04T13:10:31.564Z,101432.75
2023-03-04T13:13:36.747Z,101429.28
2023-03-04T13:16:42.475Z,101431.50
2023-03-04T13:19:58.053Z,101423.03
2023-03-04T13:23:01.376Z,101432.66
2023-03-04T13:26:21.343Z,101428.22
2023-03-04T13:29:36.827Z,101423.25
2023-03-04T13:32:42.668Z,101420.59
2023-03-04T13:35:52.246Z,101427.69
2023-03-04T13:39:00.365Z,101424.34
2023-03-04T13:42:05.117Z,101433.53
2023-03-04T13:45:33.757Z,101430.22
2023-03-04T13:48:38.529Z,101430.72
2023-03-04T13:51:44.874Z,101429.41
2023-03-04T13:54:47.458Z,101433.13
2023-03-04T13:57:51.240Z,101433.91
2023-03-04T14:00:55.595Z,101426.72
2023-03-04T14:04:00.198Z,101423.63
2023-03-04T14:07:18.006Z,101427.94
2023-03-04T14:10:23.987Z,101429.69
2023-03-04T14:13:27.650Z,101432.00
2023-03-04T14:16:33.370Z,101439.31
2023-03-04T14:19:44.551Z,101430.13
2023-03-04T14:22:47.140Z,101438.81
2023-03-04T14:25:49.817Z,101427.31
2023-03-04T14:28:57.230Z,101432.94
2023-03-04T14:32:01.153Z,101422.84
2023-03-04T14:35:08.105Z,101421.38
2023-03-04T14:38:20.470Z,101416.72
2023-03-04T14:41:28.352Z,101417.56
2023-03-04T14:44:36.015Z,101427.56
2023-03-04T14:47:45.211Z,101430.16
2023-03-04T14:50:53.736Z,101426.66
2023-03-04T14:53:57.294Z,101419.63
2023-03-04T14:57:01.585Z,101420.84
2023-03-04T15:00:25.388Z,101416.09
2023-03-04T15:03:31.072Z,101411.91
2023-03-04T15:06:36.563Z,101415.25
2023-03-04T15:09:42.324Z,101418.19
2023-03-04T15:12:52.659Z,101413.66
2023-03-04T15:16:01.885Z,101426.03
2023-03-04T15:19:06.690Z,101420.06
2023-03-04T15:22:10.611Z,101419.81
2023-03-04T15:25:15.348Z,101421.50
2023-03-04T15:28:20.050Z,101416.53
2023-03-04T15:31:25.673Z,101415.56
2023-03-04T15:34:28.481Z,101416.66
2023-03-04T15:37:32.523Z,101422.78
2023-03-04T15:40:38.964Z,101414.47
2023-03-04T15:43:41.578Z,101420.28
2023-03-04T15:46:44.220Z,101423.13
2023-03-04T15:49:47.718Z,101430.16
2023-03-04T15:52:51.998Z,101421.28
2023-03-04T15:55:55.092Z,101424.25
2023-03-04T15:59:00.218Z,101418.91
2023-03-04T16:02:02.860Z,101420.72
2023-03-04T16:05:06.067Z,101426.13
2023-03-04T16:08:13.885Z,101425.94
2023-03-04T16:11:17.746Z,101416.31
2023-03-04T16:14:20.393Z,101415.19
2023-03-04T16:17:22.974Z,101421.34
2023-03-04T16:20:29.020Z,101423.50
2023-03-04T16:23:39.292Z,101418.28
2023-03-04T16:26:42.082Z,101420.69
2023-03-04T16:29:45.043Z,101410.31
2023-03-04T16:32:48.001Z,101417.28
2023-03-04T16:35:51.680Z,101410.34
2023-03-04T16:38:58.543Z,101410.09
2023-03-04T16:42:02.487Z,101406.03
2023-03-04T16:45:05.612Z,101402.53
2023-03-04T16:48:08.213Z,101400.91
2023-03-04T16:51:16.346Z,101400.00
2023-03-04T16:54:27.860Z,101398.31
2023-03-04T16:57:31.478Z,101404.34
2023-03-04T17:00:34.154Z,101397.22
2023-03-04T17:03:36.762Z,101414.00
2023-03-04T17:06:39.850Z,101399.91
2023-03-04T17:09:43.852Z,101400.75
2023-03-04T17:12:46.472Z,101398.19
2023-03-04T17:15:49.080Z,101407.97
2023-03-04T17:18:51.767Z,101399.09
2023-03-04T17:21:54.405Z,101408.03
2023-03-04T17:24:58.501Z,101407.97
2023-03-04T17:28:01.105Z,101414.25
2023-03-04T17:31:10.250Z,101416.88
2023-03-04T17:34:13.373Z,101412.53
2023-03-04T17:37:16.180Z,101409.91
2023-03-04T17:40:20.205Z,101409.88
2023-03-04T17:43:23.401Z,101415.00
2023-03-04T17:46:27.837Z,101419.41
2023-03-04T17:49:30.471Z,101409.97
2023-03-04T17:52:33.260Z,101419.56
2023-03-04T17:55:37.194Z,101415.31
2023-03-04T17:58:40.315Z,101416.88
2023-03-04T18:01:44.948Z,101420.56
2023-03-04T18:04:48.819Z,101416.59
2023-03-04T18:07:51.410Z,101417.34
2023-03-04T18:10:55.468Z,101412.97
2023-03-04T18:13:58.224Z,101409.47
2023-03-04T18:17:00.876Z,101411.25
2023-03-04T18:20:03.642Z,101413.63
2023-03-04T18:23:06.260Z,101410.19
2023-03-04T18:26:10.248Z,101420.75
2023-03-04T18:29:12.844Z,101406.06
2023-03-04T18:32:15.495Z,101411.16
2023-03-04T18:35:19.467Z,101412.00
2023-03-04T18:38:22.170Z,101397.44
2023-03-04T18:41:27.793Z,101408.00
2023-03-04T18:44:30.668Z,101407.94
2023-03-04T18:47:35.002Z,101413.22
2023-03-04T18:50:37.682Z,101401.00
2023-03-04T18:53:40.332Z,101405.34
2023-03-04T18:56:47.685Z,101408.56
2023-03-04T18:59:53.615Z,101404.28
2023-03-04T19:02:59.974Z,101401.78
2023-03-04T19:06:02.615Z,101406.97
2023-03-04T19:09:05.773Z,101399.06
2023-03-04T19:12:09.792Z,101404.59
2023-03-04T19:15:13.463Z,101409.03
2023-03-04T19:18:16.059Z,101397.78
2023-03-04T19:21:19.347Z,101402.13
2023-03-04T19:24:22.024Z,101420.56
2023-03-04T19:27:26.606Z,101407.31
2023-03-04T19:30:29.431Z,101412.41
2023-03-04T19:33:32.056Z,101416.16
2023-03-04T19:36:34.629Z,101416.16
2023-03-04T19:39:37.260Z,101411.59
2023-03-04T19:42:41.279Z,101406.53
2023-03-04T19:45:43.852Z,101410.94
2023-03-04T19:48:49.110Z,101416.09
2023-03-04T19:51:51.689Z,101420.56
2023-03-04T19:54:54.468Z,101422.31
2023-03-04T19:57:58.431Z,101432.84
2023-03-04T20:01:00.989Z,101425.09
2023-03-04T20:04:08.055Z,101437.34
2023-03-04T20:07:10.696Z,101430.31
2023-03-04T20:10:14.405Z,101439.06
2023-03-04T20:13:18.382Z,101435.53
2023-03-04T20:16:20.987Z,101433.72
2023-03-04T20:19:23.571Z,101435.47
2023-03-04T20:22:26.160Z,101434.63
2023-03-04T20:25:31.895Z,101442.47
2023-03-04T20:28:35.889Z,101431.97
2023-03-04T20:31:39.493Z,101440.69
2023-03-04T20:34:42.066Z,101440.75
2023-03-04T20:37:44.907Z,101428.56
2023-03-04T20:40:47.584Z,101428.56
2023-03-04T20:43:51.537Z,101426.84
2023-03-04T20:46:54.237Z,101432.94
2023-03-04T20:49:56.846Z,101436.41
2023-03-04T20:52:59.446Z,101430.31
2023-03-04T20:56:03.525Z,101423.34
2023-03-04T20:59:09.331Z,101423.34
2023-03-04T21:02:15.525Z,101421.66
2023-03-04T21:05:18.324Z,101426.84
2023-03-04T21:08:20.953Z,101419.78
2023-03-04T21:11:24.399Z,101411.00
2023-03-04T21:14:30.162Z,101411.84
2023-03-04T21:17:32.754Z,101408.31
2023-03-04T21:20:35.327Z,101410.94
2023-03-04T21:23:38.750Z,101403.03
2023-03-04T21:26:42.978Z,101409.19
2023-03-04T21:29:49.255Z,101398.69
2023-03-04T21:32:52.486Z,101397.03
2023-03-04T21:35:55.173Z,101397.72
2023-03-04T21:38:57.790Z,101396.72
2023-03-04T21:42:01.264Z,101399.38
2023-03-04T21:45:06.462Z,101399.34
2023-03-04T21:48:09.308Z,101395.84
2023-03-04T21:51:14.903Z,101387.03
2023-03-04T21:54:17.637Z,101393.16
2023-03-04T21:57:20.498Z,101381.03
2023-03-04T22:00:24.691Z,101378.56
2023-03-04T22:03:27.612Z,101370.53
2023-03-04T22:06:33.469Z,101368.91
2023-03-04T22:09:36.047Z,101375.88
2023-03-04T22:12:38.623Z,101374.88
2023-03-04T22:15:45.276Z,101380.19
2023-03-04T22:18:47.892Z,101368.00
2023-03-04T22:21:51.281Z,101373.41
2023-03-04T22:24:53.851Z,101377.72
2023-03-04T22:27:57.018Z,101382.25
2023-03-04T22:31:01.887Z,101372.50
2023-03-04T22:34:07.365Z,101371.56
2023-03-04T22:37:10.341Z,101369.81
2023-03-04T22:40:15.188Z,101382.16
2023-03-04T22:43:17.866Z,101371.69
2023-03-04T22:46:24.314Z,101367.19
2023-03-04T22:49:26.888Z,101367.13
2023-03-04T22:52:29.525Z,101365.41
2023-03-04T22:55:32.175Z,101360.00
2023-03-04T22:58:35.059Z,101354.78
2023-03-04T23:01:39.077Z,101347.13
2023-03-04T23:04:43.057Z,101344.53
2023-03-04T23:07:45.741Z,101341.84
2023-03-04T23:10:48.307Z,101339.16
2023-03-04T23:13:51.755Z,101332.00
2023-03-04T23:16:55.765Z,101331.38
2023-03-04T23:19:58.404Z,101326.13
2023-03-04T23:23:01.145Z,101327.00
2023-03-04T23:26:04.129Z,101324.25
2023-03-04T23:29:08.879Z,101323.38
2023-03-04T23:32:12.814Z,101320.06
2023-03-04T23:35:15.468Z,101311.28
2023-03-04T23:38:18.040Z,101314.63
2023-03-04T23:41:22.593Z,101290.16
2023-03-04T23:44:25.193Z,101300.78
2023-03-04T23:47:29.426Z,101305.81
2023-03-04T23:50:33.750Z,101302.41
2023-03-04T23:53:38.912Z,101292.03
2023-03-04T23:56:41.904Z,101284.25
2023-03-04T23:59:44.546Z,101283.34
